sensor_id;sensor_type;location;lat;lon;timestamp;P1;durP1;ratioP1;P2;durP2;ratioP2
50122;SDS011;36021;48.670;6.184;2023-05-29T00:00:20;4.47;;;2.53;;
50122;SDS011;36021;48.670;6.184;2023-05-29T00:02:49;3.90;;;2.58;;
50122;SDS011;36021;48.670;6.184;2023-05-29T00:05:16;5.10;;;2.38;;
50122;SDS011;36021;48.670;6.184;2023-05-29T00:07:43;7.50;;;2.40;;
50122;SDS011;36021;48.670;6.184;2023-05-29T00:10:09;6.18;;;2.80;;
50122;SDS011;36021;48.670;6.184;2023-05-29T00:12:38;7.50;;;2.97;;
50122;SDS011;36021;48.670;6.184;2023-05-29T00:15:04;6.25;;;3.08;;
50122;SDS011;36021;48.670;6.184;2023-05-29T00:17:32;5.43;;;2.55;;
50122;SDS011;36021;48.670;6.184;2023-05-29T00:19:58;6.57;;;3.10;;
50122;SDS011;36021;48.670;6.184;2023-05-29T00:22:26;3.83;;;2.38;;
50122;SDS011;36021;48.670;6.184;2023-05-29T00:24:52;8.13;;;2.78;;
50122;SDS011;36021;48.670;6.184;2023-05-29T00:27:18;5.63;;;2.60;;
50122;SDS011;36021;48.670;6.184;2023-05-29T00:29:44;6.55;;;2.95;;
50122;SDS011;36021;48.670;6.184;2023-05-29T00:32:12;6.45;;;3.25;;
50122;SDS011;36021;48.670;6.184;2023-05-29T00:34:38;6.80;;;2.65;;
50122;SDS011;36021;48.670;6.184;2023-05-29T00:37:03;7.22;;;3.05;;
50122;SDS011;36021;48.670;6.184;2023-05-29T00:39:29;6.03;;;2.65;;
50122;SDS011;36021;48.670;6.184;2023-05-29T00:41:56;7.40;;;2.97;;
50122;SDS011;36021;48.670;6.184;2023-05-29T00:44:21;5.18;;;2.70;;
50122;SDS011;36021;48.670;6.184;2023-05-29T00:46:48;4.88;;;2.22;;
50122;SDS011;36021;48.670;6.184;2023-05-29T00:49:16;6.22;;;2.40;;
50122;SDS011;36021;48.670;6.184;2023-05-29T00:51:43;7.55;;;2.67;;
50122;SDS011;36021;48.670;6.184;2023-05-29T00:54:11;5.60;;;2.65;;
50122;SDS011;36021;48.670;6.184;2023-05-29T00:56:38;5.57;;;2.42;;
50122;SDS011;36021;48.670;6.184;2023-05-29T00:59:10;6.35;;;2.65;;
50122;SDS011;36021;48.670;6.184;2023-05-29T01:01:37;4.80;;;2.45;;
50122;SDS011;36021;48.670;6.184;2023-05-29T01:04:04;6.07;;;2.58;;
50122;SDS011;36021;48.670;6.184;2023-05-29T01:06:37;6.10;;;2.20;;
50122;SDS011;36021;48.670;6.184;2023-05-29T01:09:05;5.47;;;2.13;;
50122;SDS011;36021;48.670;6.184;2023-05-29T01:14:01;6.72;;;2.80;;
50122;SDS011;36021;48.670;6.184;2023-05-29T01:24:42;3.83;;;2.22;;
50122;SDS011;36021;48.670;6.184;2023-05-29T01:27:14;6.90;;;2.45;;
50122;SDS011;36021;48.670;6.184;2023-05-29T01:32:11;2.97;;;1.95;;
50122;SDS011;36021;48.670;6.184;2023-05-29T01:34:38;5.57;;;2.38;;
50122;SDS011;36021;48.670;6.184;2023-05-29T01:37:04;4.00;;;2.20;;
50122;SDS011;36021;48.670;6.184;2023-05-29T01:39:31;4.20;;;1.90;;
50122;SDS011;36021;48.670;6.184;2023-05-29T01:41:59;7.43;;;3.03;;
50122;SDS011;36021;48.670;6.184;2023-05-29T01:44:25;5.45;;;2.35;;
50122;SDS011;36021;48.670;6.184;2023-05-29T01:46:52;3.97;;;2.10;;
50122;SDS011;36021;48.670;6.184;2023-05-29T01:49:18;4.97;;;2.50;;
50122;SDS011;36021;48.670;6.184;2023-05-29T01:51:44;4.72;;;2.42;;
50122;SDS011;36021;48.670;6.184;2023-05-29T01:54:10;7.38;;;3.03;;
50122;SDS011;36021;48.670;6.184;2023-05-29T01:56:39;6.80;;;2.50;;
50122;SDS011;36021;48.670;6.184;2023-05-29T01:59:06;3.60;;;2.45;;
50122;SDS011;36021;48.670;6.184;2023-05-29T02:01:33;5.32;;;2.45;;
50122;SDS011;36021;48.670;6.184;2023-05-29T02:03:58;4.88;;;1.85;;
50122;SDS011;36021;48.670;6.184;2023-05-29T02:06:25;5.43;;;2.35;;
50122;SDS011;36021;48.670;6.184;2023-05-29T02:08:52;5.53;;;2.60;;
50122;SDS011;36021;48.670;6.184;2023-05-29T02:11:18;3.97;;;2.10;;
50122;SDS011;36021;48.670;6.184;2023-05-29T02:13:44;5.57;;;1.83;;
50122;SDS011;36021;48.670;6.184;2023-05-29T02:16:11;6.57;;;1.98;;
50122;SDS011;36021;48.670;6.184;2023-05-29T02:18:37;5.10;;;2.28;;
50122;SDS011;36021;48.670;6.184;2023-05-29T02:21:05;5.53;;;2.35;;
50122;SDS011;36021;48.670;6.184;2023-05-29T02:23:31;4.90;;;2.40;;
50122;SDS011;36021;48.670;6.184;2023-05-29T02:25:56;5.28;;;2.38;;
50122;SDS011;36021;48.670;6.184;2023-05-29T02:28:22;6.07;;;2.50;;
50122;SDS011;36021;48.670;6.184;2023-05-29T02:30:50;4.30;;;2.22;;
50122;SDS011;36021;48.670;6.184;2023-05-29T02:33:16;4.45;;;2.25;;
50122;SDS011;36021;48.670;6.184;2023-05-29T02:35:41;5.95;;;2.50;;
50122;SDS011;36021;48.670;6.184;2023-05-29T02:38:07;6.68;;;2.45;;
50122;SDS011;36021;48.670;6.184;2023-05-29T02:40:33;5.32;;;2.33;;
50122;SDS011;36021;48.670;6.184;2023-05-29T02:42:58;3.78;;;2.40;;
50122;SDS011;36021;48.670;6.184;2023-05-29T02:45:24;4.65;;;2.20;;
50122;SDS011;36021;48.670;6.184;2023-05-29T02:47:49;6.25;;;2.38;;
50122;SDS011;36021;48.670;6.184;2023-05-29T02:50:15;7.55;;;2.70;;
50122;SDS011;36021;48.670;6.184;2023-05-29T02:52:41;6.72;;;2.47;;
50122;SDS011;36021;48.670;6.184;2023-05-29T02:55:08;6.30;;;2.55;;
50122;SDS011;36021;48.670;6.184;2023-05-29T02:57:34;7.22;;;2.35;;
50122;SDS011;36021;48.670;6.184;2023-05-29T03:00:01;8.32;;;2.50;;
50122;SDS011;36021;48.670;6.184;2023-05-29T03:02:31;5.72;;;2.72;;
50122;SDS011;36021;48.670;6.184;2023-05-29T03:04:57;6.32;;;2.85;;
50122;SDS011;36021;48.670;6.184;2023-05-29T03:07:23;5.28;;;2.30;;
50122;SDS011;36021;48.670;6.184;2023-05-29T03:09:49;7.20;;;2.13;;
50122;SDS011;36021;48.670;6.184;2023-05-29T03:12:16;6.20;;;2.38;;
50122;SDS011;36021;48.670;6.184;2023-05-29T03:14:42;5.68;;;2.22;;
50122;SDS011;36021;48.670;6.184;2023-05-29T03:17:10;3.78;;;1.90;;
50122;SDS011;36021;48.670;6.184;2023-05-29T03:19:36;4.68;;;2.55;;
50122;SDS011;36021;48.670;6.184;2023-05-29T03:22:05;5.05;;;2.22;;
50122;SDS011;36021;48.670;6.184;2023-05-29T03:24:33;7.27;;;2.13;;
50122;SDS011;36021;48.670;6.184;2023-05-29T03:27:00;3.85;;;1.98;;
50122;SDS011;36021;48.670;6.184;2023-05-29T03:29:33;6.90;;;3.92;;
50122;SDS011;36021;48.670;6.184;2023-05-29T03:32:02;8.23;;;2.88;;
50122;SDS011;36021;48.670;6.184;2023-05-29T03:34:31;9.45;;;2.28;;
50122;SDS011;36021;48.670;6.184;2023-05-29T03:36:58;6.88;;;2.65;;
50122;SDS011;36021;48.670;6.184;2023-05-29T03:39:25;3.75;;;2.10;;
50122;SDS011;36021;48.670;6.184;2023-05-29T03:41:51;9.38;;;2.70;;
50122;SDS011;36021;48.670;6.184;2023-05-29T03:44:17;5.15;;;2.50;;
50122;SDS011;36021;48.670;6.184;2023-05-29T03:46:43;3.22;;;1.85;;
50122;SDS011;36021;48.670;6.184;2023-05-29T03:49:09;7.50;;;2.13;;
50122;SDS011;36021;48.670;6.184;2023-05-29T03:51:36;4.78;;;2.40;;
50122;SDS011;36021;48.670;6.184;2023-05-29T03:54:05;7.50;;;2.35;;
50122;SDS011;36021;48.670;6.184;2023-05-29T03:56:32;4.40;;;2.58;;
50122;SDS011;36021;48.670;6.184;2023-05-29T03:58:58;5.55;;;2.03;;
50122;SDS011;36021;48.670;6.184;2023-05-29T04:01:24;8.00;;;2.50;;
50122;SDS011;36021;48.670;6.184;2023-05-29T04:03:50;6.22;;;2.75;;
50122;SDS011;36021;48.670;6.184;2023-05-29T04:06:16;4.35;;;2.47;;
50122;SDS011;36021;48.670;6.184;2023-05-29T04:08:42;6.70;;;2.20;;
50122;SDS011;36021;48.670;6.184;2023-05-29T04:11:07;10.82;;;2.58;;
50122;SDS011;36021;48.670;6.184;2023-05-29T04:13:33;5.22;;;2.13;;
50122;SDS011;36021;48.670;6.184;2023-05-29T04:16:00;5.72;;;2.10;;
50122;SDS011;36021;48.670;6.184;2023-05-29T04:18:26;6.65;;;2.10;;
50122;SDS011;36021;48.670;6.184;2023-05-29T04:20:54;4.95;;;2.15;;
50122;SDS011;36021;48.670;6.184;2023-05-29T04:23:20;3.85;;;1.90;;
50122;SDS011;36021;48.670;6.184;2023-05-29T04:25:46;5.78;;;2.42;;
50122;SDS011;36021;48.670;6.184;2023-05-29T04:28:16;2.78;;;1.65;;
50122;SDS011;36021;48.670;6.184;2023-05-29T04:30:43;4.53;;;2.70;;
50122;SDS011;36021;48.670;6.184;2023-05-29T04:33:09;5.57;;;2.28;;
50122;SDS011;36021;48.670;6.184;2023-05-29T04:35:39;5.10;;;2.35;;
50122;SDS011;36021;48.670;6.184;2023-05-29T04:38:09;5.38;;;2.67;;
50122;SDS011;36021;48.670;6.184;2023-05-29T04:40:35;3.30;;;1.98;;
50122;SDS011;36021;48.670;6.184;2023-05-29T04:43:02;4.13;;;1.83;;
50122;SDS011;36021;48.670;6.184;2023-05-29T04:45:43;3.15;;;1.88;;
50122;SDS011;36021;48.670;6.184;2023-05-29T04:48:08;6.70;;;2.15;;
50122;SDS011;36021;48.670;6.184;2023-05-29T04:50:34;5.68;;;2.08;;
50122;SDS011;36021;48.670;6.184;2023-05-29T04:53:02;5.82;;;1.83;;
50122;SDS011;36021;48.670;6.184;2023-05-29T04:55:28;10.57;;;2.63;;
50122;SDS011;36021;48.670;6.184;2023-05-29T04:57:55;8.30;;;2.60;;
50122;SDS011;36021;48.670;6.184;2023-05-29T05:00:23;4.97;;;1.92;;
50122;SDS011;36021;48.670;6.184;2023-05-29T05:02:50;7.15;;;2.10;;
50122;SDS011;36021;48.670;6.184;2023-05-29T05:05:17;3.20;;;1.60;;
50122;SDS011;36021;48.670;6.184;2023-05-29T05:07:43;3.63;;;1.85;;
50122;SDS011;36021;48.670;6.184;2023-05-29T05:10:09;5.07;;;2.33;;
50122;SDS011;36021;48.670;6.184;2023-05-29T05:12:36;4.28;;;1.80;;
50122;SDS011;36021;48.670;6.184;2023-05-29T05:15:05;4.03;;;1.67;;
50122;SDS011;36021;48.670;6.184;2023-05-29T05:17:32;5.10;;;1.67;;
50122;SDS011;36021;48.670;6.184;2023-05-29T05:20:00;5.17;;;1.77;;
50122;SDS011;36021;48.670;6.184;2023-05-29T05:22:28;6.95;;;1.75;;
50122;SDS011;36021;48.670;6.184;2023-05-29T05:24:55;3.83;;;2.00;;
50122;SDS011;36021;48.670;6.184;2023-05-29T05:27:22;2.73;;;1.67;;
50122;SDS011;36021;48.670;6.184;2023-05-29T05:29:48;4.90;;;1.80;;
50122;SDS011;36021;48.670;6.184;2023-05-29T05:32:14;4.28;;;1.77;;
50122;SDS011;36021;48.670;6.184;2023-05-29T05:34:40;4.82;;;2.15;;
50122;SDS011;36021;48.670;6.184;2023-05-29T05:37:06;4.72;;;1.60;;
50122;SDS011;36021;48.670;6.184;2023-05-29T05:39:33;2.58;;;1.60;;
50122;SDS011;36021;48.670;6.184;2023-05-29T05:41:59;6.88;;;1.88;;
50122;SDS011;36021;48.670;6.184;2023-05-29T05:44:42;4.43;;;1.45;;
50122;SDS011;36021;48.670;6.184;2023-05-29T05:47:11;2.85;;;1.90;;
50122;SDS011;36021;48.670;6.184;2023-05-29T05:49:37;3.92;;;2.42;;
50122;SDS011;36021;48.670;6.184;2023-05-29T05:52:03;8.38;;;2.08;;
50122;SDS011;36021;48.670;6.184;2023-05-29T05:54:28;5.47;;;1.80;;
50122;SDS011;36021;48.670;6.184;2023-05-29T05:56:54;6.50;;;1.65;;
50122;SDS011;36021;48.670;6.184;2023-05-29T05:59:21;2.47;;;1.92;;
50122;SDS011;36021;48.670;6.184;2023-05-29T06:01:47;4.45;;;1.92;;
50122;SDS011;36021;48.670;6.184;2023-05-29T06:04:13;4.90;;;2.00;;
50122;SDS011;36021;48.670;6.184;2023-05-29T06:06:38;4.70;;;1.80;;
50122;SDS011;36021;48.670;6.184;2023-05-29T06:09:04;2.03;;;1.48;;
50122;SDS011;36021;48.670;6.184;2023-05-29T06:11:30;3.97;;;2.25;;
50122;SDS011;36021;48.670;6.184;2023-05-29T06:13:57;3.20;;;1.23;;
50122;SDS011;36021;48.670;6.184;2023-05-29T06:16:28;3.92;;;1.50;;
50122;SDS011;36021;48.670;6.184;2023-05-29T06:18:56;7.00;;;1.77;;
50122;SDS011;36021;48.670;6.184;2023-05-29T06:21:23;5.23;;;1.90;;
50122;SDS011;36021;48.670;6.184;2023-05-29T06:23:54;6.63;;;2.03;;
50122;SDS011;36021;48.670;6.184;2023-05-29T06:26:20;6.38;;;1.88;;
50122;SDS011;36021;48.670;6.184;2023-05-29T06:28:49;3.33;;;1.55;;
50122;SDS011;36021;48.670;6.184;2023-05-29T06:31:14;5.85;;;2.20;;
50122;SDS011;36021;48.670;6.184;2023-05-29T06:33:41;6.80;;;2.45;;
50122;SDS011;36021;48.670;6.184;2023-05-29T06:36:07;4.75;;;1.50;;
50122;SDS011;36021;48.670;6.184;2023-05-29T06:38:34;3.67;;;1.73;;
50122;SDS011;36021;48.670;6.184;2023-05-29T06:41:00;3.97;;;1.70;;
50122;SDS011;36021;48.670;6.184;2023-05-29T06:43:26;4.88;;;1.63;;
50122;SDS011;36021;48.670;6.184;2023-05-29T06:45:56;4.50;;;1.98;;
50122;SDS011;36021;48.670;6.184;2023-05-29T06:48:21;2.78;;;1.80;;
50122;SDS011;36021;48.670;6.184;2023-05-29T06:50:48;5.68;;;2.05;;
50122;SDS011;36021;48.670;6.184;2023-05-29T06:53:45;3.50;;;2.13;;
50122;SDS011;36021;48.670;6.184;2023-05-29T06:56:12;4.80;;;1.67;;
50122;SDS011;36021;48.670;6.184;2023-05-29T06:58:38;3.03;;;1.92;;
50122;SDS011;36021;48.670;6.184;2023-05-29T07:01:05;3.63;;;1.58;;
50122;SDS011;36021;48.670;6.184;2023-05-29T07:03:32;3.92;;;2.08;;
50122;SDS011;36021;48.670;6.184;2023-05-29T07:06:00;4.38;;;1.92;;
50122;SDS011;36021;48.670;6.184;2023-05-29T07:08:27;6.18;;;1.45;;
50122;SDS011;36021;48.670;6.184;2023-05-29T07:10:53;2.60;;;1.88;;
50122;SDS011;36021;48.670;6.184;2023-05-29T07:13:20;5.43;;;2.20;;
50122;SDS011;36021;48.670;6.184;2023-05-29T07:15:48;5.32;;;1.70;;
50122;SDS011;36021;48.670;6.184;2023-05-29T07:18:15;4.13;;;1.88;;
50122;SDS011;36021;48.670;6.184;2023-05-29T07:20:41;3.88;;;1.55;;
50122;SDS011;36021;48.670;6.184;2023-05-29T07:23:12;3.22;;;1.63;;
50122;SDS011;36021;48.670;6.184;2023-05-29T07:25:37;5.90;;;1.90;;
50122;SDS011;36021;48.670;6.184;2023-05-29T07:28:04;2.95;;;1.45;;
50122;SDS011;36021;48.670;6.184;2023-05-29T07:30:30;4.10;;;1.65;;
50122;SDS011;36021;48.670;6.184;2023-05-29T07:32:57;3.67;;;1.83;;
50122;SDS011;36021;48.670;6.184;2023-05-29T07:35:22;3.17;;;1.70;;
50122;SDS011;36021;48.670;6.184;2023-05-29T07:37:48;4.03;;;1.70;;
50122;SDS011;36021;48.670;6.184;2023-05-29T07:40:15;3.65;;;1.45;;
50122;SDS011;36021;48.670;6.184;2023-05-29T07:43:10;2.95;;;1.90;;
50122;SDS011;36021;48.670;6.184;2023-05-29T07:45:57;1.90;;;1.33;;
50122;SDS011;36021;48.670;6.184;2023-05-29T07:48:23;6.25;;;2.05;;
50122;SDS011;36021;48.670;6.184;2023-05-29T07:50:50;3.50;;;1.85;;
50122;SDS011;36021;48.670;6.184;2023-05-29T07:53:17;3.08;;;1.65;;
50122;SDS011;36021;48.670;6.184;2023-05-29T07:55:48;4.03;;;1.58;;
50122;SDS011;36021;48.670;6.184;2023-05-29T07:58:13;2.10;;;1.38;;
50122;SDS011;36021;48.670;6.184;2023-05-29T08:00:43;5.40;;;1.90;;
50122;SDS011;36021;48.670;6.184;2023-05-29T08:03:09;3.15;;;1.60;;
50122;SDS011;36021;48.670;6.184;2023-05-29T08:06:04;2.63;;;1.63;;
50122;SDS011;36021;48.670;6.184;2023-05-29T08:08:30;5.07;;;1.58;;
50122;SDS011;36021;48.670;6.184;2023-05-29T08:10:57;3.72;;;2.08;;
50122;SDS011;36021;48.670;6.184;2023-05-29T08:13:24;9.25;;;1.92;;
50122;SDS011;36021;48.670;6.184;2023-05-29T08:15:51;6.15;;;1.70;;
50122;SDS011;36021;48.670;6.184;2023-05-29T08:18:19;3.78;;;1.70;;
50122;SDS011;36021;48.670;6.184;2023-05-29T08:20:45;4.15;;;1.88;;
50122;SDS011;36021;48.670;6.184;2023-05-29T08:23:11;3.08;;;1.80;;
50122;SDS011;36021;48.670;6.184;2023-05-29T08:25:36;8.35;;;1.70;;
50122;SDS011;36021;48.670;6.184;2023-05-29T08:28:03;5.20;;;1.88;;
50122;SDS011;36021;48.670;6.184;2023-05-29T08:30:31;1.85;;;1.58;;
50122;SDS011;36021;48.670;6.184;2023-05-29T08:32:57;1.75;;;1.23;;
50122;SDS011;36021;48.670;6.184;2023-05-29T08:35:22;2.63;;;1.52;;
50122;SDS011;36021;48.670;6.184;2023-05-29T08:37:48;3.15;;;1.83;;
50122;SDS011;36021;48.670;6.184;2023-05-29T08:40:14;3.85;;;1.88;;
50122;SDS011;36021;48.670;6.184;2023-05-29T08:42:43;7.22;;;1.88;;
50122;SDS011;36021;48.670;6.184;2023-05-29T08:45:13;4.78;;;1.88;;
50122;SDS011;36021;48.670;6.184;2023-05-29T08:47:41;10.77;;;1.80;;
50122;SDS011;36021;48.670;6.184;2023-05-29T08:50:09;3.42;;;1.30;;
50122;SDS011;36021;48.670;6.184;2023-05-29T08:52:36;2.10;;;1.35;;
50122;SDS011;36021;48.670;6.184;2023-05-29T08:55:03;2.83;;;1.60;;
50122;SDS011;36021;48.670;6.184;2023-05-29T08:57:30;7.18;;;1.80;;
50122;SDS011;36021;48.670;6.184;2023-05-29T08:59:56;3.42;;;1.90;;
50122;SDS011;36021;48.670;6.184;2023-05-29T09:02:22;5.15;;;1.83;;
50122;SDS011;36021;48.670;6.184;2023-05-29T09:04:48;2.58;;;1.67;;
50122;SDS011;36021;48.670;6.184;2023-05-29T09:07:15;3.55;;;1.80;;
50122;SDS011;36021;48.670;6.184;2023-05-29T09:12:08;3.72;;;1.77;;
50122;SDS011;36021;48.670;6.184;2023-05-29T09:17:07;3.28;;;2.00;;
50122;SDS011;36021;48.670;6.184;2023-05-29T09:19:34;2.72;;;1.85;;
50122;SDS011;36021;48.670;6.184;2023-05-29T09:22:06;4.63;;;1.58;;
50122;SDS011;36021;48.670;6.184;2023-05-29T09:24:35;4.25;;;2.17;;
50122;SDS011;36021;48.670;6.184;2023-05-29T09:27:02;2.25;;;1.60;;
50122;SDS011;36021;48.670;6.184;2023-05-29T09:29:40;2.97;;;1.55;;
50122;SDS011;36021;48.670;6.184;2023-05-29T09:32:09;3.97;;;1.75;;
50122;SDS011;36021;48.670;6.184;2023-05-29T09:34:34;2.33;;;1.50;;
50122;SDS011;36021;48.670;6.184;2023-05-29T09:37:01;4.05;;;1.80;;
50122;SDS011;36021;48.670;6.184;2023-05-29T09:39:33;2.50;;;1.50;;
50122;SDS011;36021;48.670;6.184;2023-05-29T09:42:00;2.40;;;1.52;;
50122;SDS011;36021;48.670;6.184;2023-05-29T09:44:26;3.83;;;1.58;;
50122;SDS011;36021;48.670;6.184;2023-05-29T09:46:59;2.92;;;1.75;;
50122;SDS011;36021;48.670;6.184;2023-05-29T09:49:25;6.88;;;1.73;;
50122;SDS011;36021;48.670;6.184;2023-05-29T09:51:55;3.33;;;1.83;;
50122;SDS011;36021;48.670;6.184;2023-05-29T09:54:28;2.95;;;1.60;;
50122;SDS011;36021;48.670;6.184;2023-05-29T09:56:55;2.80;;;1.92;;
50122;SDS011;36021;48.670;6.184;2023-05-29T09:59:23;6.10;;;2.80;;
50122;SDS011;36021;48.670;6.184;2023-05-29T10:01:49;5.07;;;2.70;;
50122;SDS011;36021;48.670;6.184;2023-05-29T10:04:25;3.63;;;2.17;;
50122;SDS011;36021;48.670;6.184;2023-05-29T10:06:52;3.08;;;1.83;;
50122;SDS011;36021;48.670;6.184;2023-05-29T10:09:22;3.78;;;1.52;;
50122;SDS011;36021;48.670;6.184;2023-05-29T10:11:51;2.22;;;1.40;;
50122;SDS011;36021;48.670;6.184;2023-05-29T10:14:18;1.92;;;1.63;;
50122;SDS011;36021;48.670;6.184;2023-05-29T10:16:47;15.90;;;2.22;;
50122;SDS011;36021;48.670;6.184;2023-05-29T10:19:18;2.53;;;1.45;;
50122;SDS011;36021;48.670;6.184;2023-05-29T10:21:51;2.60;;;1.40;;
50122;SDS011;36021;48.670;6.184;2023-05-29T10:24:19;2.72;;;1.33;;
50122;SDS011;36021;48.670;6.184;2023-05-29T10:26:47;2.60;;;1.33;;
50122;SDS011;36021;48.670;6.184;2023-05-29T10:40:12;1.98;;;1.23;;
50122;SDS011;36021;48.670;6.184;2023-05-29T10:42:42;3.47;;;1.67;;
50122;SDS011;36021;48.670;6.184;2023-05-29T10:45:11;3.67;;;1.80;;
50122;SDS011;36021;48.670;6.184;2023-05-29T10:48:42;2.78;;;1.60;;
50122;SDS011;36021;48.670;6.184;2023-05-29T10:50:43;3.00;;;1.63;;
50122;SDS011;36021;48.670;6.184;2023-05-29T10:53:15;5.05;;;1.85;;
50122;SDS011;36021;48.670;6.184;2023-05-29T10:55:42;8.00;;;1.30;;
50122;SDS011;36021;48.670;6.184;2023-05-29T10:58:23;5.63;;;1.45;;
50122;SDS011;36021;48.670;6.184;2023-05-29T11:00:51;2.30;;;1.25;;
50122;SDS011;36021;48.670;6.184;2023-05-29T11:03:24;3.15;;;1.42;;
50122;SDS011;36021;48.670;6.184;2023-05-29T11:06:04;2.67;;;1.38;;
50122;SDS011;36021;48.670;6.184;2023-05-29T11:08:44;2.08;;;1.17;;
50122;SDS011;36021;48.670;6.184;2023-05-29T11:11:11;8.88;;;2.20;;
50122;SDS011;36021;48.670;6.184;2023-05-29T11:13:38;2.95;;;1.70;;
50122;SDS011;36021;48.670;6.184;2023-05-29T11:16:13;4.10;;;1.50;;
50122;SDS011;36021;48.670;6.184;2023-05-29T11:18:51;3.95;;;1.40;;
50122;SDS011;36021;48.670;6.184;2023-05-29T11:24:08;3.60;;;1.58;;
50122;SDS011;36021;48.670;6.184;2023-05-29T11:26:45;1.97;;;1.27;;
50122;SDS011;36021;48.670;6.184;2023-05-29T11:29:12;3.08;;;1.52;;
50122;SDS011;36021;48.670;6.184;2023-05-29T11:31:42;2.38;;;1.23;;
50122;SDS011;36021;48.670;6.184;2023-05-29T11:34:09;3.42;;;1.42;;
50122;SDS011;36021;48.670;6.184;2023-05-29T11:36:40;3.03;;;1.35;;
50122;SDS011;36021;48.670;6.184;2023-05-29T11:39:06;3.55;;;1.90;;
50122;SDS011;36021;48.670;6.184;2023-05-29T11:41:34;4.40;;;1.38;;
50122;SDS011;36021;48.670;6.184;2023-05-29T11:44:00;2.70;;;1.40;;
50122;SDS011;36021;48.670;6.184;2023-05-29T11:46:27;5.40;;;1.77;;
50122;SDS011;36021;48.670;6.184;2023-05-29T11:48:56;3.65;;;2.03;;
50122;SDS011;36021;48.670;6.184;2023-05-29T11:51:22;3.60;;;1.33;;
50122;SDS011;36021;48.670;6.184;2023-05-29T11:53:48;4.70;;;1.60;;
50122;SDS011;36021;48.670;6.184;2023-05-29T11:56:14;3.47;;;2.00;;
50122;SDS011;36021;48.670;6.184;2023-05-29T11:58:41;2.97;;;1.55;;
50122;SDS011;36021;48.670;6.184;2023-05-29T12:01:11;3.83;;;1.65;;
50122;SDS011;36021;48.670;6.184;2023-05-29T12:03:42;4.85;;;1.83;;
50122;SDS011;36021;48.670;6.184;2023-05-29T12:06:09;4.75;;;1.40;;
50122;SDS011;36021;48.670;6.184;2023-05-29T12:08:38;2.88;;;1.60;;
50122;SDS011;36021;48.670;6.184;2023-05-29T12:11:04;3.42;;;1.90;;
50122;SDS011;36021;48.670;6.184;2023-05-29T12:13:30;2.63;;;1.45;;
50122;SDS011;36021;48.670;6.184;2023-05-29T12:15:59;4.05;;;1.67;;
50122;SDS011;36021;48.670;6.184;2023-05-29T12:18:30;3.83;;;1.60;;
50122;SDS011;36021;48.670;6.184;2023-05-29T12:21:01;4.63;;;1.60;;
50122;SDS011;36021;48.670;6.184;2023-05-29T12:23:29;3.63;;;1.90;;
50122;SDS011;36021;48.670;6.184;2023-05-29T12:25:56;3.00;;;1.25;;
50122;SDS011;36021;48.670;6.184;2023-05-29T12:28:24;2.80;;;1.43;;
50122;SDS011;36021;48.670;6.184;2023-05-29T12:30:57;2.03;;;1.25;;
50122;SDS011;36021;48.670;6.184;2023-05-29T12:36:07;3.20;;;1.63;;
50122;SDS011;36021;48.670;6.184;2023-05-29T12:38:50;2.42;;;1.48;;
50122;SDS011;36021;48.670;6.184;2023-05-29T12:41:27;3.38;;;1.70;;
50122;SDS011;36021;48.670;6.184;2023-05-29T12:43:54;4.65;;;1.30;;
50122;SDS011;36021;48.670;6.184;2023-05-29T12:46:22;3.57;;;2.10;;
50122;SDS011;36021;48.670;6.184;2023-05-29T12:48:48;3.92;;;1.60;;
50122;SDS011;36021;48.670;6.184;2023-05-29T12:51:17;4.22;;;1.73;;
50122;SDS011;36021;48.670;6.184;2023-05-29T12:53:47;3.20;;;1.58;;
50122;SDS011;36021;48.670;6.184;2023-05-29T12:56:12;3.10;;;1.50;;
50122;SDS011;36021;48.670;6.184;2023-05-29T12:58:38;3.33;;;1.83;;
50122;SDS011;36021;48.670;6.184;2023-05-29T13:01:11;2.50;;;1.52;;
50122;SDS011;36021;48.670;6.184;2023-05-29T13:03:39;2.90;;;1.52;;
50122;SDS011;36021;48.670;6.184;2023-05-29T13:06:07;3.70;;;1.70;;
50122;SDS011;36021;48.670;6.184;2023-05-29T13:08:33;5.10;;;1.73;;
50122;SDS011;36021;48.670;6.184;2023-05-29T13:11:00;4.13;;;1.80;;
50122;SDS011;36021;48.670;6.184;2023-05-29T13:13:26;3.00;;;1.50;;
50122;SDS011;36021;48.670;6.184;2023-05-29T13:15:52;4.63;;;1.83;;
50122;SDS011;36021;48.670;6.184;2023-05-29T13:18:18;2.42;;;1.40;;
50122;SDS011;36021;48.670;6.184;2023-05-29T13:20:45;3.83;;;1.42;;
50122;SDS011;36021;48.670;6.184;2023-05-29T13:23:11;5.22;;;1.27;;
50122;SDS011;36021;48.670;6.184;2023-05-29T13:25:36;3.72;;;2.15;;
50122;SDS011;36021;48.670;6.184;2023-05-29T13:28:02;4.07;;;1.60;;
50122;SDS011;36021;48.670;6.184;2023-05-29T13:30:29;6.63;;;1.50;;
50122;SDS011;36021;48.670;6.184;2023-05-29T13:32:55;3.10;;;1.58;;
50122;SDS011;36021;48.670;6.184;2023-05-29T13:35:23;4.90;;;1.85;;
50122;SDS011;36021;48.670;6.184;2023-05-29T13:37:49;5.38;;;2.30;;
50122;SDS011;36021;48.670;6.184;2023-05-29T13:40:15;4.30;;;1.90;;
50122;SDS011;36021;48.670;6.184;2023-05-29T13:42:41;2.83;;;1.90;;
50122;SDS011;36021;48.670;6.184;2023-05-29T13:45:07;3.75;;;1.85;;
50122;SDS011;36021;48.670;6.184;2023-05-29T13:47:33;4.00;;;1.85;;
50122;SDS011;36021;48.670;6.184;2023-05-29T13:50:02;2.45;;;1.40;;
50122;SDS011;36021;48.670;6.184;2023-05-29T13:52:29;2.55;;;1.52;;
50122;SDS011;36021;48.670;6.184;2023-05-29T13:54:55;2.80;;;1.77;;
50122;SDS011;36021;48.670;6.184;2023-05-29T13:57:23;3.85;;;1.65;;
50122;SDS011;36021;48.670;6.184;2023-05-29T13:59:49;4.07;;;2.05;;
50122;SDS011;36021;48.670;6.184;2023-05-29T14:02:14;4.32;;;1.92;;
50122;SDS011;36021;48.670;6.184;2023-05-29T14:04:40;2.75;;;1.83;;
50122;SDS011;36021;48.670;6.184;2023-05-29T14:07:07;2.22;;;1.45;;
50122;SDS011;36021;48.670;6.184;2023-05-29T14:09:33;3.30;;;1.58;;
50122;SDS011;36021;48.670;6.184;2023-05-29T14:11:59;7.40;;;2.65;;
50122;SDS011;36021;48.670;6.184;2023-05-29T14:14:25;4.43;;;2.42;;
50122;SDS011;36021;48.670;6.184;2023-05-29T14:16:51;2.60;;;1.80;;
50122;SDS011;36021;48.670;6.184;2023-05-29T14:19:18;2.47;;;1.98;;
50122;SDS011;36021;48.670;6.184;2023-05-29T14:21:46;2.22;;;1.60;;
50122;SDS011;36021;48.670;6.184;2023-05-29T14:24:12;2.22;;;1.55;;
50122;SDS011;36021;48.670;6.184;2023-05-29T14:26:39;3.47;;;1.83;;
50122;SDS011;36021;48.670;6.184;2023-05-29T14:29:10;2.95;;;1.90;;
50122;SDS011;36021;48.670;6.184;2023-05-29T14:31:39;2.05;;;1.50;;
50122;SDS011;36021;48.670;6.184;2023-05-29T14:34:06;3.85;;;2.25;;
50122;SDS011;36021;48.670;6.184;2023-05-29T14:36:31;2.13;;;1.67;;
50122;SDS011;36021;48.670;6.184;2023-05-29T14:38:57;2.53;;;1.80;;
50122;SDS011;36021;48.670;6.184;2023-05-29T14:41:23;3.03;;;1.90;;
50122;SDS011;36021;48.670;6.184;2023-05-29T14:46:17;3.10;;;2.25;;
50122;SDS011;36021;48.670;6.184;2023-05-29T14:48:42;2.30;;;1.80;;
50122;SDS011;36021;48.670;6.184;2023-05-29T14:51:08;2.40;;;2.00;;
50122;SDS011;36021;48.670;6.184;2023-05-29T14:53:35;2.58;;;1.30;;
50122;SDS011;36021;48.670;6.184;2023-05-29T14:56:01;4.43;;;2.30;;
50122;SDS011;36021;48.670;6.184;2023-05-29T14:58:27;4.82;;;1.80;;
50122;SDS011;36021;48.670;6.184;2023-05-29T15:00:53;3.40;;;2.10;;
50122;SDS011;36021;48.670;6.184;2023-05-29T15:05:50;2.88;;;1.88;;
50122;SDS011;36021;48.670;6.184;2023-05-29T15:08:15;3.10;;;1.50;;
50122;SDS011;36021;48.670;6.184;2023-05-29T15:10:41;3.33;;;2.00;;
50122;SDS011;36021;48.670;6.184;2023-05-29T15:13:06;3.53;;;2.13;;
50122;SDS011;36021;48.670;6.184;2023-05-29T15:15:32;4.22;;;2.03;;
50122;SDS011;36021;48.670;6.184;2023-05-29T15:18:00;3.10;;;1.75;;
50122;SDS011;36021;48.670;6.184;2023-05-29T15:20:26;3.05;;;2.10;;
50122;SDS011;36021;48.670;6.184;2023-05-29T15:22:53;3.50;;;1.85;;
50122;SDS011;36021;48.670;6.184;2023-05-29T15:25:20;3.58;;;2.35;;
50122;SDS011;36021;48.670;6.184;2023-05-29T15:27:47;4.32;;;2.10;;
50122;SDS011;36021;48.670;6.184;2023-05-29T15:30:15;3.85;;;1.98;;